createdAt,value
2023-02-16T00:03:43.675Z,65.05
2023-02-16T00:08:47.693Z,63.33
2023-02-16T00:13:53.158Z,68.38
2023-02-16T00:18:56.654Z,65.65
2023-02-16T00:23:59.766Z,69.60
2023-02-16T00:29:04.325Z,61.38
2023-02-16T00:34:20.930Z,63.13
2023-02-16T00:39:24.987Z,64.85
2023-02-16T00:44:33.462Z,63.17
2023-02-16T00:49:36.640Z,62.25
2023-02-16T00:54:39.766Z,67.95
2023-02-16T00:59:44.341Z,65.35
2023-02-16T01:04:47.579Z,72.50
2023-02-16T01:10:08.365Z,68.38
2023-02-16T01:15:14.035Z,67.30
2023-02-16T01:20:18.028Z,64.70
2023-02-16T01:25:21.306Z,64.13
2023-02-16T01:30:27.152Z,61.17
2023-02-16T01:35:34.141Z,69.57
2023-02-16T01:40:39.544Z,62.22
2023-02-16T01:45:47.820Z,74.32
2023-02-16T01:50:55.594Z,65.15
2023-02-16T01:56:01.257Z,64.03
2023-02-16T02:01:23.167Z,63.20
2023-02-16T02:06:31.481Z,68.53
2023-02-16T02:11:37.704Z,51.95
2023-02-16T02:16:41.073Z,64.32
2023-02-16T02:22:14.190Z,63.40
2023-02-16T02:27:21.837Z,65.20
2023-02-16T02:32:30.498Z,66.07
2023-02-16T02:37:40.838Z,57.92
2023-02-16T02:42:49.916Z,63.50
2023-02-16T02:47:53.308Z,64.20
2023-02-16T02:52:58.721Z,62.83
2023-02-16T02:58:21.985Z,67.55
2023-02-16T03:03:27.747Z,71.35
2023-02-16T03:08:33.186Z,61.05
2023-02-16T03:13:38.806Z,72.10
2023-02-16T03:18:59.980Z,68.18
2023-02-16T03:29:27.072Z,44.47
2023-02-16T03:34:31.146Z,73.15
2023-02-16T03:39:55.636Z,70.38
2023-02-16T03:45:00.197Z,60.35
2023-02-16T03:50:03.408Z,66.07
2023-02-16T03:55:06.838Z,64.28
2023-02-16T04:00:12.294Z,69.00
2023-02-16T04:05:20.101Z,56.53
2023-02-16T04:10:23.590Z,63.17
2023-02-16T04:15:28.927Z,64.88
2023-02-16T04:20:32.828Z,74.07
2023-02-16T04:25:36.157Z,69.15
2023-02-16T04:30:40.828Z,73.30
2023-02-16T04:35:44.127Z,73.85
2023-02-16T04:40:47.270Z,74.65
2023-02-16T04:45:51.879Z,77.78
2023-02-16T04:50:54.998Z,76.70
2023-02-16T04:55:58.054Z,78.97
2023-02-16T05:01:02.875Z,80.18
2023-02-16T05:06:06.661Z,85.72
2023-02-16T05:11:27.711Z,77.93
2023-02-16T05:16:32.227Z,70.30
2023-02-16T05:21:35.852Z,73.43
2023-02-16T05:26:39.936Z,78.68
2023-02-16T05:31:44.576Z,75.97
2023-02-16T05:36:47.705Z,77.75
2023-02-16T05:41:50.886Z,75.03
2023-02-16T05:46:55.360Z,78.80
2023-02-16T05:51:58.466Z,81.90
2023-02-16T05:57:01.560Z,78.10
2023-02-16T06:02:06.477Z,78.95
2023-02-16T06:07:09.513Z,89.00
2023-02-16T06:12:12.752Z,84.40
2023-02-16T06:17:17.260Z,77.82
2023-02-16T06:22:20.443Z,74.97
2023-02-16T06:27:23.707Z,79.90
2023-02-16T06:32:28.295Z,79.05
2023-02-16T06:37:31.542Z,81.10
2023-02-16T06:42:34.839Z,87.00
2023-02-16T06:47:39.437Z,75.22
2023-02-16T06:52:42.595Z,75.30
2023-02-16T06:57:45.685Z,99.10
2023-02-16T07:02:50.136Z,77.72
2023-02-16T07:07:53.325Z,74.18
2023-02-16T07:12:56.475Z,79.72
2023-02-16T07:18:00.899Z,75.25
2023-02-16T07:23:04.088Z,72.60
2023-02-16T07:28:07.512Z,75.15
2023-02-16T07:33:12.246Z,78.85
2023-02-16T07:38:15.702Z,73.90
2023-02-16T07:43:19.390Z,74.85
2023-02-16T07:48:24.440Z,70.32
2023-02-16T07:53:27.861Z,74.40
2023-02-16T07:58:30.988Z,72.95
2023-02-16T08:03:35.595Z,71.85
2023-02-16T08:08:39.526Z,70.00
2023-02-16T08:13:43.197Z,80.07
2023-02-16T08:18:47.980Z,73.30
2023-02-16T08:23:54.419Z,74.10
2023-02-16T08:28:58.621Z,77.03
2023-02-16T08:34:04.034Z,68.70
2023-02-16T08:39:08.204Z,69.05
2023-02-16T08:44:12.100Z,65.03
2023-02-16T08:49:18.916Z,70.55
2023-02-16T08:54:23.151Z,66.75
2023-02-16T08:59:28.626Z,64.57
2023-02-16T09:04:33.743Z,69.68
2023-02-16T09:09:36.858Z,68.72
2023-02-16T09:14:40.630Z,67.22
2023-02-16T09:19:45.217Z,66.18
2023-02-16T09:24:48.617Z,72.53
2023-02-16T09:29:52.110Z,70.82
2023-02-16T09:34:57.185Z,67.38
2023-02-16T09:40:00.511Z,67.93
2023-02-16T09:45:06.167Z,77.00
2023-02-16T09:50:17.083Z,65.13
2023-02-16T09:55:22.637Z,63.22
2023-02-16T10:00:30.853Z,59.33
2023-02-16T10:05:42.804Z,71.22
2023-02-16T10:10:49.314Z,73.82
2023-02-16T10:15:54.249Z,73.07
2023-02-16T10:21:01.061Z,74.10
2023-02-16T10:26:08.078Z,73.45
2023-02-16T10:31:14.234Z,74.18
2023-02-16T10:36:24.799Z,79.15
2023-02-16T10:41:31.785Z,57.42
2023-02-16T10:46:39.518Z,80.72
2023-02-16T10:51:46.617Z,84.95
2023-02-16T10:56:52.835Z,76.60
2023-02-16T11:01:57.638Z,81.35
2023-02-16T11:07:06.474Z,83.82
2023-02-16T11:12:17.430Z,72.82
2023-02-16T11:17:22.456Z,82.72
2023-02-16T11:22:29.311Z,82.18
2023-02-16T11:27:32.718Z,79.90
2023-02-16T11:32:37.329Z,77.32
2023-02-16T11:37:42.177Z,81.90
2023-02-16T11:42:47.223Z,79.22
2023-02-16T11:47:53.630Z,79.13
2023-02-16T11:52:59.251Z,81.00
2023-02-16T11:58:25.354Z,82.95
2023-02-16T12:03:46.323Z,83.10
2023-02-16T12:08:58.220Z,78.25
2023-02-16T12:14:08.269Z,81.72
2023-02-16T12:19:25.786Z,75.00
2023-02-16T12:24:36.238Z,74.80
2023-02-16T12:29:45.088Z,81.60
2023-02-16T12:34:55.973Z,73.03
2023-02-16T12:40:04.310Z,77.80
2023-02-16T12:45:11.158Z,78.43
2023-02-16T12:50:18.464Z,72.90
2023-02-16T12:55:26.177Z,74.90
2023-02-16T13:00:35.334Z,72.63
2023-02-16T13:05:38.842Z,68.38
2023-02-16T13:10:48.497Z,62.65
2023-02-16T13:15:53.139Z,63.08
2023-02-16T13:21:00.376Z,59.20
2023-02-16T13:26:19.833Z,60.17
2023-02-16T13:31:29.471Z,54.58
2023-02-16T13:36:41.995Z,57.00
2023-02-16T13:42:04.349Z,54.83
2023-02-16T13:47:08.083Z,55.88
2023-02-16T13:52:11.566Z,63.58
2023-02-16T13:57:36.318Z,52.65
2023-02-16T14:02:54.557Z,56.75
2023-02-16T14:08:12.712Z,57.28
2023-02-16T14:13:17.230Z,60.05
2023-02-16T14:18:28.790Z,55.13
2023-02-16T14:23:34.822Z,52.60
2023-02-16T14:29:03.008Z,57.33
2023-02-16T14:34:10.147Z,49.50
2023-02-16T14:39:16.962Z,51.30
2023-02-16T14:44:27.622Z,50.53
2023-02-16T14:49:40.807Z,50.15
2023-02-16T14:55:03.892Z,50.63
2023-02-16T15:00:14.371Z,44.70
2023-02-16T15:05:18.953Z,45.00
2023-02-16T15:10:26.912Z,44.33
2023-02-16T15:15:40.170Z,42.35
2023-02-16T15:20:45.685Z,41.05
2023-02-16T15:25:56.942Z,40.70
2023-02-16T15:31:02.765Z,35.67
2023-02-16T15:36:09.018Z,36.50
2023-02-16T15:41:14.539Z,35.67
2023-02-16T15:46:24.887Z,33.95
2023-02-16T15:51:31.800Z,38.27
2023-02-16T15:56:38.137Z,36.67
2023-02-16T16:01:42.872Z,38.97
2023-02-16T16:06:48.405Z,41.20
2023-02-16T16:11:52.052Z,39.92
2023-02-16T16:16:57.303Z,36.15
2023-02-16T16:22:00.571Z,39.40
2023-02-16T16:27:06.584Z,38.22
2023-02-16T16:32:19.223Z,40.47
2023-02-16T16:37:26.608Z,40.75
2023-02-16T16:42:29.698Z,41.83
2023-02-16T16:47:35.649Z,42.15
2023-02-16T16:52:40.589Z,41.25
2023-02-16T16:57:43.793Z,43.00
2023-02-16T17:02:48.882Z,47.20
2023-02-16T17:07:52.395Z,48.15
2023-02-16T17:12:57.240Z,51.05
2023-02-16T17:18:02.487Z,44.83
2023-02-16T17:23:06.110Z,45.33
2023-02-16T17:28:10.402Z,52.20
2023-02-16T17:33:15.025Z,51.78
2023-02-16T17:38:19.589Z,45.75
2023-02-16T17:43:23.549Z,50.20
2023-02-16T17:48:29.515Z,51.70
2023-02-16T17:53:33.199Z,51.08
2023-02-16T17:58:36.472Z,45.60
2023-02-16T18:03:41.331Z,52.03
2023-02-16T18:08:45.156Z,53.10
2023-02-16T18:13:48.588Z,45.08
2023-02-16T18:18:53.457Z,46.05
2023-02-16T18:23:56.678Z,45.65
2023-02-16T18:28:59.983Z,52.78
2023-02-16T18:34:06.159Z,50.30
2023-02-16T18:39:09.901Z,55.17
2023-02-16T18:44:13.261Z,47.85
2023-02-16T18:49:18.095Z,51.78
2023-02-16T18:54:21.645Z,51.35
2023-02-16T18:59:24.927Z,45.88
2023-02-16T19:04:29.923Z,51.22
2023-02-16T19:09:33.189Z,48.72
2023-02-16T19:14:36.639Z,55.17
2023-02-16T19:19:41.398Z,48.92
2023-02-16T19:24:44.590Z,50.03
2023-02-16T19:29:48.296Z,52.13
2023-02-16T19:34:52.809Z,49.47
2023-02-16T19:39:56.114Z,55.08
2023-02-16T19:44:59.542Z,49.03
2023-02-16T19:50:04.554Z,55.67
2023-02-16T19:55:08.422Z,46.35
2023-02-16T20:00:14.156Z,45.72
2023-02-16T20:05:19.200Z,47.08
2023-02-16T20:10:22.363Z,54.55
2023-02-16T20:15:25.848Z,49.75
2023-02-16T20:20:30.342Z,44.47
2023-02-16T20:25:33.470Z,47.08
2023-02-16T20:30:36.534Z,43.85
2023-02-16T20:35:41.328Z,45.47
2023-02-16T20:40:44.672Z,50.30
2023-02-16T20:45:48.254Z,52.70
2023-02-16T20:50:55.471Z,46.65
2023-02-16T20:56:01.677Z,42.55
2023-02-16T21:01:05.695Z,45.85
2023-02-16T21:06:10.658Z,45.28
2023-02-16T21:11:14.124Z,43.08
2023-02-16T21:16:17.291Z,44.47
2023-02-16T21:21:21.948Z,47.08
2023-02-16T21:26:26.012Z,43.90
2023-02-16T21:31:29.331Z,45.60
2023-02-16T21:36:34.225Z,45.53
2023-02-16T21:41:37.629Z,41.92
2023-02-16T21:46:41.888Z,44.38
2023-02-16T21:51:47.078Z,46.75
2023-02-16T21:56:51.769Z,41.25
2023-02-16T22:01:55.085Z,50.38
2023-02-16T22:06:59.583Z,48.60
2023-02-16T22:12:02.845Z,46.33
2023-02-16T22:17:07.695Z,45.85
2023-02-16T22:22:12.290Z,45.78
2023-02-16T22:27:15.515Z,40.75
2023-02-16T22:32:18.730Z,38.88
2023-02-16T22:37:23.357Z,35.08
2023-02-16T22:42:26.660Z,31.75
2023-02-16T22:47:30.238Z,32.95
2023-02-16T22:52:36.474Z,35.50
2023-02-16T22:57:39.961Z,33.00
2023-02-16T23:02:43.040Z,36.22
2023-02-16T23:07:47.505Z,39.30
2023-02-16T23:12:50.633Z,38.53
2023-02-16T23:17:53.913Z,41.10
2023-02-16T23:22:58.381Z,40.95
2023-02-16T23:28:01.907Z,36.72
2023-02-16T23:33:05.082Z,38.88
2023-02-16T23:38:13.005Z,36.15
2023-02-16T23:43:16.078Z,30.75
2023-02-16T23:48:19.149Z,31.70
2023-02-16T23:53:24.161Z,32.10
2023-02-16T23:58:28.384Z,28.98
